Time;durP1;ratioP1;P1;durP2;ratioP2;P2;SDS_P1;SDS_P2;PMS_P1;PMS_P2;Temp;Humidity;BMP_temperature;BMP_pressure;BME280_temperature;BME280_humidity;BME280_pressure;Samples;Min_cycle;Max_cycle;Signal;HPM_P1;HPM_P2
2022/02/14 00:00:09;;;;;;;25.23;11.68;;;;;;;0.53;74.90;100676.44;1643931;86;21802;-75
2022/02/14 00:02:40;;;;;;;22.90;12.13;;;;;;;0.53;74.90;100672.62;1641417;84;21000;-75
2022/02/14 00:05:07;;;;;;;24.18;11.45;;;;;;;0.53;74.92;100671.35;1648201;83;20932;-75
2022/02/14 00:07:33;;;;;;;19.92;10.80;;;;;;;0.54;74.95;100669.67;1665784;85;20960;-75
2022/02/14 00:10:07;;;;;;;20.62;11.20;;;;;;;0.54;74.96;100666.71;1672227;85;20921;-75
2022/02/14 00:12:34;;;;;;;25.35;11.25;;;;;;;0.54;74.97;100665.44;1666168;83;20960;-75
2022/02/14 00:15:01;;;;;;;20.17;10.55;;;;;;;0.53;74.96;100664.98;1658598;85;20933;-75
2022/02/14 00:17:28;;;;;;;20.10;10.80;;;;;;;0.53;74.95;100664.98;1683450;85;20905;-75
2022/02/14 00:19:54;;;;;;;22.37;10.88;;;;;;;0.53;74.97;100664.13;1673618;83;20956;-75
2022/02/14 00:22:21;;;;;;;20.77;10.32;;;;;;;0.53;74.99;100658.63;1658595;85;22624;-75
2022/02/14 00:24:52;;;;;;;18.48;9.90;;;;;;;0.51;74.99;100653.95;1658626;85;20956;-75
2022/02/14 00:27:20;;;;;;;18.98;10.15;;;;;;;0.52;74.98;100656.08;1658377;85;21393;-75
2022/02/14 00:29:48;;;;;;;20.88;10.50;;;;;;;0.52;75.00;100656.91;1665990;83;20944;-75
2022/02/14 00:32:15;;;;;;;23.20;10.85;;;;;;;0.51;75.00;100657.77;1683569;85;20956;-76
2022/02/14 00:34:42;;;;;;;20.88;10.60;;;;;;;0.50;75.00;100656.45;1660617;84;20924;-75
2022/02/14 00:37:08;;;;;;;14.50;9.68;;;;;;;0.50;75.01;100651.36;1659236;83;25806;-75
2022/02/14 00:39:34;;;;;;;19.87;10.68;;;;;;;0.49;75.01;100659.41;1670992;85;21503;-74
2022/02/14 00:42:00;;;;;;;19.73;9.85;;;;;;;0.47;75.02;100652.15;1658578;85;20988;-74
2022/02/14 00:44:26;;;;;;;16.48;10.10;;;;;;;0.46;75.02;100654.24;1659699;83;20956;-75
2022/02/14 00:46:53;;;;;;;22.00;10.60;;;;;;;0.45;75.02;100647.84;1677039;85;20888;-75
2022/02/14 00:49:18;;;;;;;19.52;9.58;;;;;;;0.44;75.02;100649.52;1672618;83;20920;-75
2022/02/14 00:51:44;;;;;;;18.23;9.17;;;;;;;0.43;75.06;100645.26;1658773;85;20948;-76
2022/02/14 00:54:10;;;;;;;18.80;9.93;;;;;;;0.43;75.03;100646.53;1665614;83;20888;-76
2022/02/14 00:56:36;;;;;;;16.48;9.08;;;;;;;0.42;75.04;100647.36;1665701;84;20952;-76
2022/02/14 00:59:02;;;;;;;18.63;9.73;;;;;;;0.43;75.07;100641.86;1686582;84;20847;-75
2022/02/14 01:01:29;;;;;;;18.90;9.90;;;;;;;0.43;75.06;100638.04;1671918;83;21103;-75
2022/02/14 01:03:55;;;;;;;15.63;8.45;;;;;;;0.43;75.09;100635.50;1658651;84;21071;-75
2022/02/14 01:06:25;;;;;;;16.97;9.43;;;;;;;0.42;75.07;100633.78;1665475;83;21673;-75
2022/02/14 01:08:49;;;;;;;15.58;8.90;;;;;;;0.41;75.09;100635.45;1626899;86;21427;-76
2022/02/14 01:11:16;;;;;;;19.75;10.82;;;;;;;0.42;75.10;100635.91;1682880;85;21070;-76
2022/02/14 01:13:42;;;;;;;12.90;8.48;;;;;;;0.43;75.09;100632.95;1661431;85;21063;-76
2022/02/14 01:16:09;;;;;;;;;;;;;;;0.43;75.12;100631.68;1666319;83;21063;-76
2022/02/14 01:18:35;;;;;;;15.20;8.20;;;;;;;0.43;75.14;100627.45;1674881;85;20197;-76
2022/02/14 01:21:01;;;;;;;17.45;8.83;;;;;;;0.42;75.12;100627.00;1656484;86;21350;-75
2022/02/14 01:23:29;;;;;;;14.30;8.13;;;;;;;0.43;75.11;100625.33;1668453;83;21015;-75
2022/02/14 01:25:55;;;;;;;13.98;7.92;;;;;;;0.43;75.11;100622.78;1656528;85;21078;-75
2022/02/14 01:28:21;;;;;;;18.42;9.00;;;;;;;0.45;75.13;100627.49;1659984;83;20908;-75
2022/02/14 01:30:47;;;;;;;12.88;8.10;;;;;;;0.47;75.13;100624.58;1681940;85;20983;-75
2022/02/14 01:33:13;;;;;;;11.97;8.35;;;;;;;0.49;75.11;100621.66;1684099;84;21729;-75
2022/02/14 01:35:39;;;;;;;15.50;8.65;;;;;;;0.49;75.13;100615.30;1663840;83;21056;-75
2022/02/14 01:38:06;;;;;;;15.83;8.63;;;;;;;0.51;75.13;100617.06;1661289;84;21106;-75
2022/02/14 01:40:33;;;;;;;13.50;8.63;;;;;;;0.52;75.14;100611.12;1656093;85;21039;-75
2022/02/14 01:43:00;;;;;;;17.12;8.38;;;;;;;0.54;75.11;100614.56;1631310;86;21111;-75
2022/02/14 01:45:26;;;;;;;11.88;7.28;;;;;;;0.55;75.11;100610.33;1659495;83;21698;-75
2022/02/14 01:47:52;;;;;;;14.70;7.47;;;;;;;0.55;75.10;100603.56;1676026;85;21071;-75
2022/02/14 01:50:17;;;;;;;13.93;8.43;;;;;;;0.56;75.10;100598.92;1664311;84;20936;-75
2022/02/14 01:52:44;;;;;;;13.20;8.65;;;;;;;0.57;75.14;100598.09;1666777;83;20880;-75
2022/02/14 01:55:13;;;;;;;12.82;7.67;;;;;;;0.58;75.11;100587.09;1675655;84;21722;-75
2022/02/14 01:57:39;;;;;;;12.25;7.60;;;;;;;0.57;75.10;100580.29;1659534;83;21349;-75
2022/02/14 02:00:13;;;;;;;16.70;8.10;;;;;;;0.60;75.11;100584.59;1670838;85;28050;-76
2022/02/14 02:02:40;;;;;;;14.03;8.00;;;;;;;0.62;75.12;100575.31;1658479;85;20939;-75
2022/02/14 02:05:07;;;;;;;14.23;7.80;;;;;;;0.62;75.08;100576.17;1658604;85;20932;-76
2022/02/14 02:07:33;;;;;;;13.32;7.60;;;;;;;0.62;75.07;100571.08;1658225;83;20944;-76
2022/02/14 02:10:00;;;;;;;14.00;7.72;;;;;;;0.63;75.08;100570.26;1634407;87;20928;-76
2022/02/14 02:12:26;;;;;;;14.98;8.18;;;;;;;0.65;75.08;100567.75;1665364;83;20916;-76
2022/02/14 02:15:00;;;;;;;14.47;7.90;;;;;;;0.65;75.10;100564.79;1658141;85;20947;-76
2022/02/14 02:17:30;;;;;;;14.53;8.25;;;;;;;0.65;75.07;100560.11;1621482;87;21020;-76
2022/02/14 02:19:57;;;;;;;13.08;7.95;;;;;;;0.67;75.06;100559.73;1666068;83;20909;-75
2022/02/14 02:22:24;;;;;;;13.05;8.40;;;;;;;0.66;75.06;100560.56;1661327;85;20921;-76
2022/02/14 02:24:55;;;;;;;14.30;7.80;;;;;;;0.68;75.07;100561.88;1614490;87;20937;-76
2022/02/14 02:27:25;;;;;;;17.48;8.35;;;;;;;0.66;75.05;100555.06;1675743;83;20959;-76
2022/02/14 02:29:57;;;;;;;13.43;7.83;;;;;;;0.66;75.04;100555.06;1658049;85;20912;-76
2022/02/14 02:32:25;;;;;;;11.15;7.50;;;;;;;0.65;75.07;100550.80;1614393;86;20937;-76
2022/02/14 02:34:53;;;;;;;13.13;7.22;;;;;;;0.64;75.03;100551.63;1670610;85;20945;-76
2022/02/14 02:37:19;;;;;;;12.37;7.55;;;;;;;0.64;75.04;100546.53;1673485;83;21449;-75
2022/02/14 02:39:46;;;;;;;12.90;7.97;;;;;;;0.63;75.03;100545.23;1637755;87;20989;-75
2022/02/14 02:42:16;;;;;;;12.10;7.50;;;;;;;0.62;75.04;100541.82;1614993;86;20965;-75
2022/02/14 02:44:43;;;;;;;11.70;7.50;;;;;;;0.61;75.05;100541.38;1632670;87;21269;-75
2022/02/14 02:47:13;;;;;;;12.93;7.00;;;;;;;0.60;75.03;100537.11;1626189;87;21088;-75
2022/02/14 02:49:39;;;;;;;12.47;7.53;;;;;;;0.59;75.04;100532.84;1635142;85;20991;-75
2022/02/14 02:52:08;;;;;;;12.60;7.53;;;;;;;0.59;75.07;100535.80;1612151;87;21080;-76
2022/02/14 02:54:35;;;;;;;11.65;7.72;;;;;;;0.58;75.04;100523.91;1627499;86;22012;-75
2022/02/14 02:57:03;;;;;;;9.63;7.12;;;;;;;0.56;75.03;100525.55;1613825;87;21068;-75
2022/02/14 02:59:33;;;;;;;14.20;7.53;;;;;;;0.54;75.05;100520.84;1585720;89;21083;-75
2022/02/14 03:02:03;;;;;;;12.00;7.58;;;;;;;0.54;75.05;100525.52;1584383;87;21071;-75
2022/02/14 03:04:29;;;;;;;10.53;6.90;;;;;;;0.53;75.04;100526.34;1584548;89;21442;-75
2022/02/14 03:06:57;;;;;;;10.50;7.40;;;;;;;0.53;75.05;100518.71;1581942;88;21093;-75
2022/02/14 03:09:24;;;;;;;11.53;7.78;;;;;;;0.52;75.07;100515.72;1599898;89;28237;-75
2022/02/14 03:11:50;;;;;;;;;;;;;;;0.52;75.07;100508.09;1606554;87;21092;-75
2022/02/14 03:14:19;;;;;;;10.98;6.75;;;;;;;0.55;75.02;100513.66;1596896;88;20206;-75
2022/02/14 03:16:45;;;;;;;12.13;6.53;;;;;;;0.55;75.04;100512.39;1588747;89;21381;-75
2022/02/14 03:19:11;;;;;;;11.55;6.72;;;;;;;0.55;75.05;100506.03;1640328;86;21064;-76
2022/02/14 03:21:38;;;;;;;8.88;6.90;;;;;;;0.55;75.03;100506.89;1595093;88;21124;-76
2022/02/14 03:24:05;;;;;;;;;;;;;;;0.55;75.02;100502.21;1582796;87;21708;-76
2022/02/14 03:26:31;;;;;;;11.45;6.80;;;;;;;0.53;74.97;100498.36;1583485;89;20318;-76
2022/02/14 03:28:58;;;;;;;8.77;6.43;;;;;;;0.54;75.00;100492.45;1666437;85;20981;-75
2022/02/14 03:31:26;;;;;;;11.78;7.03;;;;;;;0.54;74.99;100487.36;1605996;86;21024;-74
2022/02/14 03:33:52;;;;;;;11.53;6.58;;;;;;;0.55;75.01;100483.98;1614022;88;21758;-75
2022/02/14 03:36:21;;;;;;;10.98;7.08;;;;;;;0.55;75.00;100485.27;1616707;88;21071;-75
2022/02/14 03:38:49;;;;;;;11.03;7.17;;;;;;;0.54;74.97;100483.55;1612273;86;20940;-76
2022/02/14 03:41:16;;;;;;;11.28;7.70;;;;;;;0.54;74.95;100477.59;1609667;87;20957;-75
2022/02/14 03:43:42;;;;;;;;;;;;;;;0.54;74.97;100477.59;1600008;87;20938;-76
2022/02/14 03:46:15;;;;;;;10.98;6.80;;;;;;;0.54;74.94;100469.97;1607215;88;20132;-76
2022/02/14 03:48:41;;;;;;;9.10;6.85;;;;;;;0.51;74.96;100466.97;1607448;87;20899;-76
2022/02/14 03:51:07;;;;;;;16.48;8.00;;;;;;;0.52;74.95;100461.03;1608528;87;21064;-76
2022/02/14 03:53:36;;;;;;;14.00;7.67;;;;;;;0.53;74.99;100464.43;1599065;88;21092;-76
2022/02/14 03:56:04;;;;;;;9.68;6.83;;;;;;;0.52;74.97;100470.38;1610501;87;21005;-75
2022/02/14 03:58:30;;;;;;;10.70;6.67;;;;;;;0.53;74.98;100461.89;1611886;87;21108;-75
2022/02/14 04:00:56;;;;;;;11.83;7.22;;;;;;;0.51;74.93;100458.07;1612162;88;20965;-76
2022/02/14 04:03:22;;;;;;;9.53;7.00;;;;;;;0.51;74.98;100460.62;1595010;88;20930;-75
2022/02/14 04:05:48;;;;;;;11.12;6.53;;;;;;;0.52;74.93;100459.76;1601377;87;21073;-76
2022/02/14 04:08:14;;;;;;;11.50;6.58;;;;;;;0.52;74.95;100460.20;1612695;88;21033;-76
2022/02/14 04:10:40;;;;;;;12.93;6.87;;;;;;;0.52;74.90;100466.56;1615505;88;21084;-75
2022/02/14 04:13:10;;;;;;;8.13;6.55;;;;;;;0.51;74.91;100455.94;1609517;87;21100;-75
2022/02/14 04:15:36;;;;;;;11.40;6.55;;;;;;;0.50;74.90;100455.49;1602845;88;21118;-75
2022/02/14 04:18:02;;;;;;;12.80;6.95;;;;;;;0.49;74.88;100453.36;1607997;88;21081;-75
2022/02/14 04:20:33;;;;;;;10.75;6.62;;;;;;;0.49;74.87;100452.50;1590114;88;21073;-75
2022/02/14 04:22:59;;;;;;;10.23;6.35;;;;;;;0.49;74.89;100447.00;1593040;87;21078;-75
2022/02/14 04:25:25;;;;;;;9.53;6.67;;;;;;;0.49;74.88;100443.19;1612975;88;20978;-75
2022/02/14 04:27:51;;;;;;;9.00;6.33;;;;;;;0.49;74.86;100443.19;1590648;89;21133;-76
2022/02/14 04:30:17;;;;;;;9.68;6.72;;;;;;;0.49;74.84;100432.16;1590709;88;21091;-76
2022/02/14 04:32:44;;;;;;;9.63;6.23;;;;;;;0.49;74.83;100438.52;1524574;85;5000703;-77
2022/02/14 04:35:11;;;;;;;9.23;6.47;;;;;;;0.49;74.83;100433.42;1634881;87;21066;-76
2022/02/14 04:37:37;;;;;;;10.20;6.15;;;;;;;0.49;74.86;100430.47;1637491;86;21062;-76
2022/02/14 04:40:05;;;;;;;9.43;5.80;;;;;;;0.48;74.83;100432.56;1638213;87;20971;-76
2022/02/14 04:42:34;;;;;;;10.15;6.45;;;;;;;0.47;74.82;100430.84;1631531;86;21118;-76
2022/02/14 04:45:01;;;;;;;11.18;5.62;;;;;;;0.47;74.82;100432.12;1623484;87;22158;-76
2022/02/14 04:47:27;;;;;;;11.20;6.17;;;;;;;0.47;74.80;100427.03;1637899;87;21141;-76
2022/02/14 04:49:56;;;;;;;9.88;6.33;;;;;;;0.45;74.81;100425.28;1659470;86;21053;-76
2022/02/14 04:52:22;;;;;;;11.25;5.92;;;;;;;0.45;74.79;100431.23;1650912;86;21094;-76
2022/02/14 04:54:48;;;;;;;14.23;6.10;;;;;;;0.45;74.81;100421.47;1631433;87;20924;-76
2022/02/14 04:57:17;;;;;;;9.33;5.47;;;;;;;0.45;74.81;100426.55;1637910;87;21093;-76
2022/02/14 04:59:44;;;;;;;8.13;6.33;;;;;;;0.43;74.79;100427.79;1629775;86;21154;-76
2022/02/14 05:02:10;;;;;;;;;;;;;;;0.32;74.79;100411.02;1641404;87;21093;-76
2022/02/14 05:04:37;;;;;;;10.88;6.72;;;;;;;0.41;74.68;100429.44;1626835;86;20272;-75
2022/02/14 05:07:03;;;;;;;8.43;6.03;;;;;;;0.40;74.77;100432.81;1624342;85;21034;-75
2022/02/14 05:09:29;;;;;;;11.60;5.75;;;;;;;0.39;74.77;100435.31;1616399;88;21121;-75
2022/02/14 05:11:55;;;;;;;9.05;6.28;;;;;;;0.38;74.76;100433.60;1627517;85;21164;-75
2022/02/14 05:14:21;;;;;;;7.78;5.62;;;;;;;0.35;74.71;100430.58;1616147;88;21070;-75
2022/02/14 05:16:48;;;;;;;11.12;5.78;;;;;;;0.36;74.76;100432.30;1601108;87;21040;-75
2022/02/14 05:19:20;;;;;;;10.93;5.55;;;;;;;0.35;74.74;100434.80;1625789;86;21104;-75
2022/02/14 05:21:47;;;;;;;8.28;5.70;;;;;;;0.35;74.77;100433.13;1629708;87;21088;-75
2022/02/14 05:24:12;;;;;;;10.63;6.95;;;;;;;0.36;74.77;100441.61;1621308;86;20949;-76
2022/02/14 05:26:38;;;;;;;9.30;5.83;;;;;;;0.35;74.75;100434.80;1604813;87;20936;-75
2022/02/14 05:29:04;;;;;;;9.83;6.10;;;;;;;0.33;74.74;100439.86;1627588;87;20925;-76
2022/02/14 05:31:30;;;;;;;12.30;6.03;;;;;;;0.32;74.74;100436.87;1616601;86;20992;-76
2022/02/14 05:33:56;;;;;;;11.70;6.28;;;;;;;0.32;74.72;100433.05;1608587;86;21121;-76
2022/02/14 05:36:24;;;;;;;10.53;6.62;;;;;;;0.31;74.74;100436.42;1629862;87;20949;-76
2022/02/14 05:38:50;;;;;;;9.38;6.65;;;;;;;0.31;74.73;100435.15;1630671;87;21096;-76
2022/02/14 05:41:16;;;;;;;12.13;6.67;;;;;;;0.31;74.76;100428.38;1630748;87;20990;-76
2022/02/14 05:43:42;;;;;;;11.40;6.90;;;;;;;0.31;74.73;100432.19;1624450;86;21271;-76
2022/02/14 05:46:14;;;;;;;9.08;6.45;;;;;;;0.31;74.74;100425.84;1627930;86;21555;-76
2022/02/14 05:48:46;;;;;;;8.88;6.30;;;;;;;0.30;74.71;100427.08;1617335;87;20981;-76
2022/02/14 05:51:15;;;;;;;8.75;6.47;;;;;;;0.30;74.73;100430.47;1622167;86;21077;-76
2022/02/14 05:53:42;;;;;;;11.08;6.85;;;;;;;0.31;74.76;100434.73;1623012;87;20933;-75
2022/02/14 05:56:08;;;;;;;;;;;;;;;0.32;74.76;100430.09;1617577;87;20953;-75
2022/02/14 05:58:34;;;;;;;8.75;6.22;;;;;;;0.36;74.68;100438.66;1614897;86;21186;-75
2022/02/14 06:01:00;;;;;;;10.45;6.37;;;;;;;0.37;74.74;100434.02;1614147;85;20949;-75
2022/02/14 06:03:27;;;;;;;11.35;6.90;;;;;;;0.39;74.71;100432.78;1644892;85;28147;-75
2022/02/14 06:05:53;;;;;;;10.13;6.58;;;;;;;0.40;74.73;100423.05;1629085;86;28084;-75
2022/02/14 06:08:19;;;;;;;8.93;6.50;;;;;;;0.42;74.74;100428.62;1606394;87;21041;-75
2022/02/14 06:10:45;;;;;;;12.40;7.87;;;;;;;0.44;74.72;100428.23;1631456;86;20919;-75
2022/02/14 06:13:11;;;;;;;9.75;6.12;;;;;;;0.47;74.71;100424.90;1624202;86;21113;-75
2022/02/14 06:15:37;;;;;;;9.48;6.95;;;;;;;0.48;74.73;100427.48;1617602;87;21599;-75
2022/02/14 06:18:03;;;;;;;9.07;6.27;;;;;;;0.50;74.70;100433.45;1627436;86;20951;-76
2022/02/14 06:20:29;;;;;;;9.73;6.92;;;;;;;0.54;74.71;100431.80;1616138;86;21835;-78
2022/02/14 06:22:55;;;;;;;11.68;7.03;;;;;;;0.55;74.71;100430.56;1614167;87;21617;-77
2022/02/14 06:25:21;;;;;;;9.00;6.27;;;;;;;0.58;74.71;100428.50;1626474;86;21716;-77
2022/02/14 06:27:47;;;;;;;10.80;6.87;;;;;;;0.60;74.71;100427.71;1623482;86;21019;-77
2022/02/14 06:30:22;;;;;;;11.97;6.50;;;;;;;0.63;74.69;100434.55;1619644;87;21904;-77
2022/02/14 06:32:49;;;;;;;9.45;6.47;;;;;;;0.67;74.69;100429.97;1621716;86;21145;-77
2022/02/14 06:35:15;;;;;;;14.50;6.28;;;;;;;0.71;74.71;100432.16;1620470;86;21143;-77
2022/02/14 06:37:46;;;;;;;15.18;6.22;;;;;;;0.76;74.71;100426.76;1621877;86;24897;-78
2022/02/14 06:40:13;;;;;;;10.58;7.20;;;;;;;0.80;74.72;100428.54;1619267;87;21014;-77
2022/02/14 06:42:40;;;;;;;11.43;8.18;;;;;;;0.85;74.68;100425.67;1626141;86;21158;-76
2022/02/14 06:45:06;;;;;;;;;;;;;;;0.91;74.73;100435.98;1627230;86;21711;-76
2022/02/14 06:47:32;;;;;;;10.32;6.85;;;;;;;0.97;74.63;100433.55;1625701;86;20216;-78
2022/02/14 06:50:00;;;;;;;14.13;8.05;;;;;;;0.93;74.72;100415.23;1625909;86;21591;-78
2022/02/14 06:52:26;;;;;;;9.88;6.95;;;;;;;1.11;74.75;100432.52;1629453;87;22727;-78
2022/02/14 06:54:52;;;;;;;10.38;7.00;;;;;;;1.20;74.80;100435.25;1628217;87;21606;-77
2022/02/14 06:57:18;;;;;;;10.78;7.33;;;;;;;1.30;74.77;100429.08;1602314;87;21054;-77
2022/02/14 06:59:44;;;;;;;12.70;7.75;;;;;;;1.42;74.78;100430.99;1624672;86;22247;-76
2022/02/14 07:02:20;;;;;;;9.63;6.42;;;;;;;1.56;74.79;100426.14;1564541;89;21834;-78
2022/02/14 07:04:46;;;;;;;12.90;7.10;;;;;;;1.74;74.85;100423.02;1566792;89;21583;-76
2022/02/14 07:07:18;;;;;;;13.18;6.87;;;;;;;1.87;74.81;100416.02;1618072;87;21561;-76
2022/02/14 07:09:40;;;;;;;10.45;6.62;;;;;;;1.98;74.78;100424.69;1610578;87;21137;-76
2022/02/14 07:12:08;;;;;;;9.85;7.62;;;;;;;2.06;74.75;100420.98;1610401;87;21121;-76
2022/02/14 07:14:34;;;;;;;12.05;7.50;;;;;;;2.12;74.71;100412.98;1608375;87;20947;-76
2022/02/14 07:17:00;;;;;;;11.53;7.58;;;;;;;2.20;74.69;100423.30;1612941;87;21416;-77
2022/02/14 07:19:26;;;;;;;13.90;7.60;;;;;;;2.27;74.75;100417.03;1552473;91;21817;-77
2022/02/14 07:21:52;;;;;;;14.15;8.38;;;;;;;2.39;74.72;100425.70;1603765;87;21471;-77
2022/02/14 07:24:19;;;;;;;13.38;7.45;;;;;;;2.51;74.75;100424.17;1588695;88;20953;-77
2022/02/14 07:26:45;;;;;;;10.75;6.78;;;;;;;2.61;74.71;100422.14;1610151;87;20959;-77
2022/02/14 07:29:11;;;;;;;11.63;7.08;;;;;;;2.70;74.57;100429.48;1608936;87;21423;-77
2022/02/14 07:31:37;;;;;;;14.05;7.50;;;;;;;2.71;74.62;100415.47;1605676;87;21673;-77
2022/02/14 07:34:03;;;;;;;10.45;6.65;;;;;;;2.76;74.64;100418.94;1607060;87;21501;-77
2022/02/14 07:36:36;;;;;;;10.20;6.85;;;;;;;2.79;74.68;100418.11;1603986;88;21399;-77
2022/02/14 07:39:02;;;;;;;10.03;6.57;;;;;;;2.80;74.63;100410.89;1606076;87;20975;-77
2022/02/14 07:41:28;;;;;;;14.40;7.45;;;;;;;2.83;74.64;100409.23;1605048;88;21420;-77
2022/02/14 07:43:54;;;;;;;13.40;7.80;;;;;;;2.87;74.63;100409.71;1602524;87;21460;-77
2022/02/14 07:46:21;;;;;;;12.82;8.03;;;;;;;2.94;74.64;100405.53;1582633;87;21480;-77
2022/02/14 07:48:47;;;;;;;10.95;7.30;;;;;;;2.95;74.66;100403.41;1605108;87;20946;-77
2022/02/14 07:51:15;;;;;;;10.53;7.72;;;;;;;2.98;74.63;100403.45;1607663;88;21644;-76
2022/02/14 07:53:41;;;;;;;10.10;7.58;;;;;;;2.99;74.68;100391.12;1612393;87;21482;-76
2022/02/14 07:56:09;;;;;;;12.43;7.95;;;;;;;2.98;74.61;100388.98;1606715;87;21601;-78
2022/02/14 07:58:35;;;;;;;9.75;6.65;;;;;;;2.99;74.66;100397.50;1606721;87;21123;-79
2022/02/14 08:01:01;;;;;;;11.45;7.58;;;;;;;3.03;74.72;100399.67;1603193;87;21115;-79
2022/02/14 08:03:28;;;;;;;10.32;7.90;;;;;;;3.05;74.69;100382.67;1607036;87;21106;-79
2022/02/14 08:05:54;;;;;;;9.90;7.37;;;;;;;3.06;74.66;100387.80;1606968;87;21033;-79
2022/02/14 08:08:20;;;;;;;12.45;7.90;;;;;;;3.10;74.67;100388.27;1560387;88;21150;-79
2022/02/14 08:10:46;;;;;;;10.32;7.30;;;;;;;3.17;74.66;100384.90;1579225;88;21580;-79
2022/02/14 08:13:12;;;;;;;10.18;8.13;;;;;;;3.19;74.64;100381.94;1610660;87;21601;-79
2022/02/14 08:15:38;;;;;;;11.90;7.80;;;;;;;3.20;74.59;100379.83;1570845;90;21077;-80
2022/02/14 08:18:09;;;;;;;13.98;8.98;;;;;;;3.20;74.59;100375.98;1570699;89;21588;-80
2022/02/14 08:20:37;;;;;;;17.75;8.60;;;;;;;3.22;74.60;100373.03;1624541;85;21588;-79
2022/02/14 08:23:03;;;;;;;14.53;8.40;;;;;;;3.28;74.57;100371.81;1639180;85;21036;-79
2022/02/14 08:25:32;;;;;;;11.00;8.13;;;;;;;3.36;74.59;100374.44;1625613;86;21063;-80
2022/02/14 08:28:00;;;;;;;13.58;8.38;;;;;;;3.42;74.53;100369.81;1619689;87;21683;-79
2022/02/14 08:30:27;;;;;;;12.93;8.38;;;;;;;3.46;74.53;100364.73;1625228;85;21632;-79
2022/02/14 08:32:55;;;;;;;12.60;8.15;;;;;;;3.52;74.52;100358.83;1625903;86;21130;-78
2022/02/14 08:35:21;;;;;;;14.78;8.10;;;;;;;3.59;74.52;100359.31;1622201;86;21095;-78
2022/02/14 08:37:50;;;;;;;11.63;8.40;;;;;;;3.65;74.58;100364.44;1628890;85;21040;-78
2022/02/14 08:40:16;;;;;;;14.83;8.15;;;;;;;3.71;74.47;100361.08;1631542;85;21067;-78
2022/02/14 08:42:42;;;;;;;12.63;8.28;;;;;;;3.76;74.43;100360.27;1626237;86;21400;-77
2022/02/14 08:45:10;;;;;;;14.47;7.75;;;;;;;3.79;74.38;100359.02;1627451;85;20972;-76
2022/02/14 08:47:36;;;;;;;11.93;7.80;;;;;;;3.82;74.39;100356.90;1630301;87;20920;-78
2022/02/14 08:50:04;;;;;;;17.05;8.43;;;;;;;3.84;74.30;100354.79;1629111;86;20931;-78
2022/02/14 08:52:30;;;;;;;12.28;8.08;;;;;;;3.86;74.22;100348.41;1628265;86;20886;-78
2022/02/14 08:54:57;;;;;;;12.63;8.28;;;;;;;3.87;74.31;100342.02;1633300;86;20957;-78
2022/02/14 08:57:23;;;;;;;14.45;8.90;;;;;;;3.88;74.24;100346.30;1627586;86;20925;-77
2022/02/14 08:59:50;;;;;;;11.43;7.65;;;;;;;3.92;74.18;100358.68;1626637;87;20889;-76
2022/02/14 09:02:16;;;;;;;10.40;7.72;;;;;;;3.94;74.29;100355.29;1626257;87;20940;-77
2022/02/14 09:04:42;;;;;;;12.40;8.20;;;;;;;3.98;74.23;100356.16;1636805;85;20889;-77
2022/02/14 09:07:10;;;;;;;12.95;8.85;;;;;;;4.03;74.14;100357.47;1626554;87;21003;-76
2022/02/14 09:09:36;;;;;;;14.40;8.18;;;;;;;4.09;74.12;100354.95;1626259;85;20892;-77
2022/02/14 09:12:03;;;;;;;15.07;9.40;;;;;;;4.14;74.09;100349.44;1644406;84;20923;-76
2022/02/14 09:14:30;;;;;;;;;;;;;;;4.18;74.08;100343.04;1647700;87;20909;-76
2022/02/14 09:16:56;;;;;;;12.05;8.48;;;;;;;4.23;73.74;100344.34;1642690;85;20100;-76
2022/02/14 09:19:22;;;;;;;13.88;8.73;;;;;;;4.27;74.01;100357.59;1636190;85;20877;-75
2022/02/14 09:21:51;;;;;;;14.28;8.00;;;;;;;4.32;73.99;100360.61;1645005;85;21060;-76
2022/02/14 09:24:17;;;;;;;14.03;7.95;;;;;;;4.37;73.99;100367.03;1643274;85;20936;-75
2022/02/14 09:26:45;;;;;;;15.13;8.18;;;;;;;4.42;73.95;100361.51;1640823;85;20892;-76
2022/02/14 09:29:14;;;;;;;11.35;7.90;;;;;;;4.47;73.84;100356.41;1634033;85;20892;-76
2022/02/14 09:31:40;;;;;;;12.03;8.55;;;;;;;4.51;73.91;100355.16;1615662;87;20913;-76
2022/02/14 09:34:07;;;;;;;13.50;8.98;;;;;;;4.57;73.92;100355.19;1626857;87;20929;-76
2022/02/14 09:36:34;;;;;;;;;;;;;;;4.63;73.83;100344.11;1631519;85;20933;-76
2022/02/14 09:39:01;;;;;;;15.43;7.97;;;;;;;4.68;73.43;100344.95;1626534;87;20426;-75
2022/02/14 09:41:28;;;;;;;13.50;8.50;;;;;;;4.74;73.82;100352.66;1615780;87;20980;-75
2022/02/14 09:43:55;;;;;;;15.90;8.13;;;;;;;4.80;73.76;100347.98;1637200;85;20967;-76
2022/02/14 09:46:22;;;;;;;13.58;9.28;;;;;;;4.84;73.69;100345.86;1607999;87;21103;-77
2022/02/14 09:48:49;;;;;;;11.50;8.10;;;;;;;4.89;73.65;100345.02;1630829;85;21147;-76
2022/02/14 09:51:17;;;;;;;14.45;7.80;;;;;;;4.93;73.64;100338.20;1640068;87;20933;-76
2022/02/14 09:53:44;;;;;;;11.35;8.68;;;;;;;4.96;73.65;100336.92;1632586;87;20881;-77
2022/02/14 09:56:12;;;;;;;13.30;8.50;;;;;;;5.01;73.71;100333.95;1644386;85;20873;-77
2022/02/14 09:58:38;;;;;;;14.40;8.13;;;;;;;5.07;73.57;100335.24;1643090;85;20961;-77
2022/02/14 10:01:04;;;;;;;12.10;8.80;;;;;;;5.11;73.62;100340.80;1632232;85;20973;-77
2022/02/14 10:03:33;;;;;;;15.10;8.80;;;;;;;5.17;73.58;100333.55;1645697;85;20929;-77
2022/02/14 10:06:01;;;;;;;14.53;8.48;;;;;;;5.22;73.60;100332.67;1645001;85;20913;-77
2022/02/14 10:08:37;;;;;;;12.85;8.45;;;;;;;5.29;73.53;100339.52;1645454;85;20988;-78
2022/02/14 10:11:15;;;;;;;13.35;8.05;;;;;;;5.32;73.53;100326.70;1635908;85;20995;-76
2022/02/14 10:13:45;;;;;;;17.02;10.45;;;;;;;5.35;73.38;100329.70;1628921;87;20971;-76
2022/02/14 10:16:18;;;;;;;14.38;8.45;;;;;;;5.37;73.34;100325.42;1641148;87;21007;-77
2022/02/14 10:18:44;;;;;;;12.07;8.55;;;;;;;5.42;73.40;100323.72;1637418;87;20971;-78
2022/02/14 10:21:21;;;;;;;13.70;8.80;;;;;;;5.48;73.37;100323.72;1621026;85;20944;-77
2022/02/14 10:24:08;;;;;;;12.60;7.80;;;;;;;5.51;73.33;100318.59;1620987;87;20991;-77
2022/02/14 10:26:38;;;;;;;10.20;8.58;;;;;;;5.58;73.28;100315.59;1608285;87;20943;-77
2022/02/14 10:29:25;;;;;;;14.33;8.50;;;;;;;5.67;73.29;100309.61;1630649;87;20991;-77
2022/02/14 10:31:57;;;;;;;14.85;8.85;;;;;;;5.81;73.13;100308.70;1544114;84;5001343;-77
2022/02/14 10:34:39;;;;;;;14.73;8.45;;;;;;;5.81;73.13;100308.70;1629600;85;20921;-77
2022/02/14 10:37:12;;;;;;;14.90;8.30;;;;;;;5.88;73.19;100301.42;1669123;84;20985;-77
2022/02/14 10:39:41;;;;;;;13.55;8.88;;;;;;;5.94;73.14;100301.45;1671176;84;20957;-77
2022/02/14 10:42:11;;;;;;;11.93;7.80;;;;;;;6.00;73.07;100294.59;1670795;84;21017;-77
2022/02/14 10:47:41;;;;;;;12.15;7.95;;;;;;;6.10;73.00;100293.28;1673031;84;20964;-76
2022/02/14 10:50:18;;;;;;;12.50;8.85;;;;;;;6.17;72.96;100288.55;1666036;84;20984;-77
2022/02/14 10:52:58;;;;;;;14.60;8.98;;;;;;;6.21;72.94;100288.11;1674248;84;20905;-77
2022/02/14 10:55:37;;;;;;;15.63;8.35;;;;;;;6.27;72.96;100281.64;1662761;84;20981;-77
2022/02/14 10:58:04;;;;;;;13.58;7.67;;;;;;;6.34;72.98;100272.20;1659138;86;20945;-76
2022/02/14 11:00:36;;;;;;;10.40;6.70;;;;;;;6.41;72.95;100267.46;1612188;85;20949;-77
2022/02/14 11:03:06;;;;;;;13.85;8.50;;;;;;;6.47;72.85;100267.00;1673139;84;21019;-78
2022/02/14 11:05:38;;;;;;;12.03;7.83;;;;;;;6.51;72.79;100258.42;1671535;84;20989;-77
2022/02/14 11:08:05;;;;;;;13.32;7.37;;;;;;;6.56;72.78;100258.40;1669434;84;20929;-76
2022/02/14 11:10:32;;;;;;;;;;;;;;;6.60;72.74;100245.53;1667218;85;21008;-77
2022/02/14 11:13:01;;;;;;;11.28;7.22;;;;;;;6.65;72.48;100250.64;1657819;84;20122;-78
2022/02/14 11:15:31;;;;;;;12.40;7.17;;;;;;;6.70;72.61;100248.05;1613960;85;21081;-77
2022/02/14 11:18:17;;;;;;;10.03;6.78;;;;;;;6.75;72.47;100249.73;1665892;86;20969;-81
2022/02/14 11:20:45;;;;;;;9.80;6.72;;;;;;;6.83;72.55;100249.64;1650541;85;20926;-81
2022/02/14 11:23:14;;;;;;;14.30;7.72;;;;;;;6.87;72.42;100243.63;1637467;85;20980;-79
2022/02/14 11:25:51;;;;;;;10.85;7.62;;;;;;;6.92;72.41;100242.73;1665228;84;20938;-79
2022/02/14 11:28:29;;;;;;;13.72;7.75;;;;;;;6.98;72.56;100239.26;1665973;84;20969;-79
2022/02/14 11:31:20;;;;;;;13.43;7.47;;;;;;;7.07;72.50;100242.20;1660686;86;20986;-79
2022/02/14 11:33:57;;;;;;;8.90;6.37;;;;;;;7.11;72.28;100249.88;1661110;84;20906;-79